Time;durP1;ratioP1;P1;durP2;ratioP2;P2;SDS_P1;SDS_P2;PMS_P1;PMS_P2;Temp;Humidity;BMP_temperature;BMP_pressure;BME280_temperature;BME280_humidity;BME280_pressure;Samples;Min_cycle;Max_cycle;Signal;HPM_P1;HPM_P2
2022/07/04 00:00:23;;;;;;;1.45;1.08;;;19.80;92.40;;;;;;5044859;28;20220;-33
2022/07/04 00:02:51;;;;;;;5.03;1.05;;;19.70;92.40;;;;;;5046898;28;20312;-33
2022/07/04 00:05:23;;;;;;;4.30;0.90;;;19.70;92.50;;;;;;5044223;28;20201;-33
2022/07/04 00:07:53;;;;;;;2.17;1.10;;;19.70;92.50;;;;;;5042441;28;20226;-33
2022/07/04 00:10:22;;;;;;;2.33;1.27;;;19.70;92.50;;;;;;5052728;28;20204;-33
2022/07/04 00:12:52;;;;;;;2.30;1.25;;;19.60;92.60;;;;;;5044295;28;20205;-33
2022/07/04 00:15:19;;;;;;;1.85;1.15;;;19.60;92.70;;;;;;5047758;28;20227;-33
2022/07/04 00:17:46;;;;;;;2.35;1.00;;;19.50;92.60;;;;;;5042341;28;20209;-33
2022/07/04 00:20:14;;;;;;;2.85;1.20;;;19.50;92.60;;;;;;5059181;28;20235;-33
2022/07/04 00:22:41;;;;;;;2.13;1.10;;;19.50;92.60;;;;;;5048375;28;20703;-33
2022/07/04 00:25:08;;;;;;;1.75;0.90;;;19.40;92.50;;;;;;5045585;28;20196;-33
2022/07/04 00:27:36;;;;;;;5.38;1.80;;;19.40;92.60;;;;;;5045461;28;20242;-33
2022/07/04 00:30:07;;;;;;;3.15;1.10;;;19.30;92.60;;;;;;5047702;28;20196;-33
2022/07/04 00:32:34;;;;;;;3.80;1.67;;;19.30;92.70;;;;;;5047703;28;20223;-33
2022/07/04 00:35:07;;;;;;;4.80;1.20;;;19.30;92.70;;;;;;5045879;28;20207;-33
2022/07/04 00:37:34;;;;;;;5.32;1.50;;;19.20;92.70;;;;;;5034273;28;20232;-36
2022/07/04 00:40:01;;;;;;;4.25;1.45;;;19.20;92.80;;;;;;5046903;28;20352;-36
2022/07/04 00:42:29;;;;;;;2.28;1.27;;;19.20;92.70;;;;;;5048099;28;20204;-36
2022/07/04 00:44:56;;;;;;;3.08;1.27;;;19.20;92.80;;;;;;5045461;28;20655;-36
2022/07/04 00:47:25;;;;;;;3.55;1.08;;;19.10;92.70;;;;;;5047996;28;20547;-36
2022/07/04 00:49:52;;;;;;;3.00;1.10;;;19.10;92.80;;;;;;5045596;28;20207;-36
2022/07/04 00:52:20;;;;;;;2.15;1.10;;;19.10;92.80;;;;;;5047626;28;20732;-36
2022/07/04 00:54:48;;;;;;;1.98;1.35;;;19.00;92.80;;;;;;5046918;28;20208;-36
2022/07/04 00:57:21;;;;;;;1.52;1.20;;;19.00;92.80;;;;;;5042840;28;20207;-36
2022/07/04 00:59:48;;;;;;;4.45;1.08;;;19.00;92.90;;;;;;5046183;28;20274;-36
2022/07/04 01:02:18;;;;;;;2.80;1.40;;;18.90;92.80;;;;;;5046261;28;20228;-36
2022/07/04 01:04:48;;;;;;;2.20;1.40;;;18.90;92.80;;;;;;5049846;28;20228;-36
2022/07/04 01:07:16;;;;;;;3.47;1.20;;;18.80;92.90;;;;;;5035402;28;20246;-36
2022/07/04 01:09:44;;;;;;;3.88;1.13;;;18.80;93.00;;;;;;5037722;28;20212;-36
2022/07/04 01:12:23;;;;;;;3.50;1.38;;;18.80;93.20;;;;;;5046647;28;20240;-36
2022/07/04 01:14:50;;;;;;;3.38;1.45;;;18.70;92.80;;;;;;5045192;28;20325;-33
2022/07/04 01:17:18;;;;;;;1.38;1.00;;;18.70;92.90;;;;;;5043421;28;20508;-36
2022/07/04 01:19:45;;;;;;;1.50;1.10;;;18.70;92.80;;;;;;5047501;28;20343;-36
2022/07/04 01:22:15;;;;;;;2.88;1.52;;;18.70;92.90;;;;;;5046427;28;20286;-36
2022/07/04 01:24:45;;;;;;;2.97;1.42;;;18.60;93.00;;;;;;5045919;28;20578;-36
2022/07/04 01:27:13;;;;;;;3.05;1.30;;;18.60;93.10;;;;;;5036835;28;20212;-36
2022/07/04 01:29:40;;;;;;;2.10;0.90;;;18.50;93.00;;;;;;5042584;28;20223;-36
2022/07/04 01:32:10;;;;;;;1.48;1.10;;;18.50;93.00;;;;;;5046994;28;20686;-36
2022/07/04 01:34:42;;;;;;;2.10;1.20;;;18.50;93.00;;;;;;5046728;28;20212;-36
2022/07/04 01:37:10;;;;;;;4.15;1.50;;;18.40;93.00;;;;;;5042192;28;20232;-36
2022/07/04 01:39:38;;;;;;;1.63;1.20;;;18.40;93.00;;;;;;5045279;28;20326;-36
2022/07/04 01:42:10;;;;;;;2.67;1.10;;;18.40;93.00;;;;;;5043667;28;20196;-36
2022/07/04 01:44:37;;;;;;;3.85;1.23;;;18.30;93.20;;;;;;5045482;28;20204;-36
2022/07/04 01:47:05;;;;;;;2.60;0.98;;;18.30;93.20;;;;;;5057645;28;20196;-36
2022/07/04 01:49:32;;;;;;;1.52;1.13;;;18.20;93.10;;;;;;5042120;28;20208;-36
2022/07/04 01:52:00;;;;;;;2.15;1.35;;;18.20;93.30;;;;;;5045270;28;20311;-36
2022/07/04 01:54:30;;;;;;;4.45;1.30;;;18.20;93.30;;;;;;5044414;28;20637;-41
2022/07/04 01:56:59;;;;;;;2.78;1.10;;;18.20;93.30;;;;;;5038139;28;20212;-36
2022/07/04 02:02:19;;;;;;;1.85;1.10;;;18.10;93.10;;;;;;5046430;28;20648;-36
2022/07/04 02:04:49;;;;;;;1.50;1.10;;;18.00;93.20;;;;;;5045017;28;20297;-36
2022/07/04 02:07:17;;;;;;;4.95;2.15;;;18.00;93.20;;;;;;5045082;28;20224;-36
2022/07/04 02:09:45;;;;;;;2.92;1.33;;;18.00;93.10;;;;;;5043585;28;20295;-36
2022/07/04 02:15:01;;;;;;;4.50;1.73;;;17.90;93.20;;;;;;5044634;28;20220;-36
2022/07/04 02:17:28;;;;;;;1.95;1.20;;;17.90;93.20;;;;;;5041697;28;20212;-36
2022/07/04 02:19:55;;;;;;;1.80;1.15;;;17.90;93.20;;;;;;5046339;28;20293;-33
2022/07/04 02:22:22;;;;;;;2.70;1.10;;;17.80;93.10;;;;;;5046476;28;20200;-33
2022/07/04 02:24:50;;;;;;;3.33;1.08;;;17.80;93.20;;;;;;5043992;28;20228;-33
2022/07/04 02:27:20;;;;;;;1.65;1.10;;;17.70;93.30;;;;;;5039250;28;20200;-33
2022/07/04 02:29:47;;;;;;;2.85;1.17;;;17.70;93.40;;;;;;5045030;28;20326;-33
2022/07/04 02:32:17;;;;;;;2.33;1.10;;;17.60;93.40;;;;;;5040332;28;20224;-33
2022/07/04 02:34:44;;;;;;;1.40;1.10;;;17.60;93.30;;;;;;5040450;28;20320;-33
2022/07/04 02:37:12;;;;;;;2.13;1.23;;;17.60;93.30;;;;;;5044184;28;20242;-33
2022/07/04 02:39:39;;;;;;;2.60;1.10;;;17.60;93.30;;;;;;5041500;28;20702;-33
2022/07/04 02:42:07;;;;;;;1.48;1.13;;;17.50;93.20;;;;;;5044678;28;20303;-33
2022/07/04 02:44:36;;;;;;;1.65;1.10;;;17.50;93.30;;;;;;5045076;28;20207;-33
2022/07/04 02:47:06;;;;;;;2.13;0.93;;;17.50;93.30;;;;;;5031973;28;20203;-32
2022/07/04 02:49:38;;;;;;;2.35;1.20;;;17.50;93.30;;;;;;5043960;28;20573;-33
2022/07/04 02:52:05;;;;;;;2.65;0.98;;;17.40;93.30;;;;;;5037268;28;20208;-33
2022/07/04 02:54:32;;;;;;;1.13;1.00;;;17.40;93.20;;;;;;5045045;28;20731;-33
2022/07/04 02:57:02;;;;;;;3.20;1.30;;;17.30;93.30;;;;;;5037332;28;20220;-33
2022/07/04 02:59:31;;;;;;;1.00;0.90;;;17.30;93.40;;;;;;5039489;28;20291;-33
2022/07/04 03:01:59;;;;;;;3.30;1.33;;;17.30;93.40;;;;;;5044572;28;20311;-33
2022/07/04 03:04:26;;;;;;;2.47;1.00;;;17.20;93.40;;;;;;5045876;28;20204;-33
2022/07/04 03:06:53;;;;;;;3.20;1.15;;;17.20;93.40;;;;;;5043143;28;20789;-33
2022/07/04 03:09:21;;;;;;;2.72;1.33;;;17.20;93.40;;;;;;5043736;28;20212;-36
2022/07/04 03:11:48;;;;;;;2.47;1.20;;;17.20;93.40;;;;;;5033737;28;20228;-36
2022/07/04 03:14:15;;;;;;;2.42;1.20;;;17.10;93.50;;;;;;5038003;28;20262;-35
2022/07/04 03:16:45;;;;;;;2.85;1.30;;;17.10;93.50;;;;;;5044870;28;20703;-36
2022/07/04 03:19:12;;;;;;;1.70;1.00;;;17.10;93.50;;;;;;5036776;28;20224;-36
2022/07/04 03:21:40;;;;;;;3.05;1.27;;;17.00;93.40;;;;;;5043312;28;20650;-36
2022/07/04 03:24:08;;;;;;;2.08;1.20;;;17.00;93.50;;;;;;5046939;28;20228;-35
2022/07/04 03:26:36;;;;;;;1.48;1.10;;;17.00;93.50;;;;;;5044343;28;20277;-36
2022/07/04 03:29:05;;;;;;;2.28;1.25;;;17.00;93.50;;;;;;5039828;28;20207;-36
2022/07/04 03:31:32;;;;;;;3.70;0.98;;;16.90;93.40;;;;;;5034493;28;20253;-36
2022/07/04 03:34:02;;;;;;;2.78;1.02;;;16.90;93.50;;;;;;5045881;28;20282;-35
2022/07/04 03:36:32;;;;;;;3.50;1.27;;;16.90;93.40;;;;;;5037956;28;20200;-35
2022/07/04 03:38:59;;;;;;;3.53;1.00;;;16.90;93.60;;;;;;5042638;28;20263;-36
2022/07/04 03:41:31;;;;;;;3.05;1.20;;;16.90;93.60;;;;;;5041798;28;20215;-36
2022/07/04 03:43:58;;;;;;;2.83;1.20;;;16.90;93.60;;;;;;5045725;28;20228;-36
2022/07/04 03:46:26;;;;;;;1.90;1.05;;;16.80;93.60;;;;;;5041708;28;20740;-35
2022/07/04 03:48:54;;;;;;;3.35;1.40;;;16.80;93.50;;;;;;5044511;28;20205;-36
2022/07/04 03:51:22;;;;;;;2.55;1.45;;;16.80;93.60;;;;;;5042335;28;20237;-35
2022/07/04 03:53:52;;;;;;;2.65;1.20;;;16.80;93.60;;;;;;5044046;28;20222;-35
2022/07/04 03:56:19;;;;;;;4.43;1.33;;;16.80;93.60;;;;;;5040779;28;20784;-36
2022/07/04 03:58:49;;;;;;;2.97;1.48;;;16.80;93.60;;;;;;5041413;28;20212;-35
2022/07/04 04:01:18;;;;;;;3.55;1.70;;;16.80;93.70;;;;;;5042099;28;20255;-35
2022/07/04 04:06:32;;;;;;;1.65;1.17;;;16.80;93.70;;;;;;5042430;28;20204;-33
2022/07/04 04:08:59;;;;;;;3.63;1.25;;;16.80;93.70;;;;;;5050317;28;20212;-33
2022/07/04 04:11:27;;;;;;;1.63;1.30;;;16.80;93.70;;;;;;5046085;28;20285;-33
2022/07/04 04:13:57;;;;;;;1.88;1.25;;;16.80;93.80;;;;;;5047917;28;20201;-33
2022/07/04 04:16:24;;;;;;;4.45;1.60;;;16.80;93.80;;;;;;5043430;28;20589;-33
2022/07/04 04:18:51;;;;;;;2.55;1.27;;;16.80;93.90;;;;;;5047636;28;20216;-33
2022/07/04 04:21:21;;;;;;;2.10;1.10;;;16.80;93.80;;;;;;5044569;28;20224;-33
2022/07/04 04:23:48;;;;;;;1.45;1.05;;;16.80;93.80;;;;;;5048347;28;20215;-33
2022/07/04 04:26:16;;;;;;;1.80;1.48;;;16.80;93.80;;;;;;5048365;28;20273;-33
2022/07/04 04:28:46;;;;;;;2.70;1.20;;;16.80;93.80;;;;;;5048053;28;20239;-33
2022/07/04 04:31:14;;;;;;;3.90;1.33;;;16.80;93.90;;;;;;5060990;28;20591;-33
2022/07/04 04:33:46;;;;;;;2.30;1.55;;;16.80;93.90;;;;;;5048985;28;20208;-33
2022/07/04 04:36:13;;;;;;;2.55;1.30;;;16.80;93.80;;;;;;5040939;28;20216;-33
2022/07/04 04:38:41;;;;;;;1.52;0.98;;;16.80;93.90;;;;;;5043865;28;20207;-33
2022/07/04 04:41:10;;;;;;;2.55;1.20;;;16.90;94.00;;;;;;5043560;28;20224;-32
2022/07/04 04:43:37;;;;;;;3.78;1.40;;;16.80;93.80;;;;;;5046059;28;20200;-33
2022/07/04 04:46:04;;;;;;;2.53;1.42;;;16.90;94.00;;;;;;5047837;28;20310;-33
2022/07/04 04:48:32;;;;;;;2.83;1.40;;;16.90;94.00;;;;;;5049552;28;20204;-33
2022/07/04 04:50:59;;;;;;;2.28;1.52;;;16.90;94.10;;;;;;5043919;28;20239;-33
2022/07/04 04:53:36;;;;;;;3.90;1.40;;;16.90;94.10;;;;;;5048539;28;20196;-33
2022/07/04 04:56:09;;;;;;;4.95;1.52;;;16.90;94.10;;;;;;5044681;28;20714;-33
2022/07/04 04:58:36;;;;;;;1.60;1.10;;;17.00;94.10;;;;;;5045697;28;20287;-33
2022/07/04 05:01:04;;;;;;;3.95;1.30;;;17.00;94.20;;;;;;5042233;28;20212;-33
2022/07/04 05:03:51;;;;;;;2.60;1.37;;;17.00;94.10;;;;;;5048796;28;20223;-36
2022/07/04 05:06:22;;;;;;;4.85;1.40;;;17.00;94.10;;;;;;5045551;28;20607;-33
2022/07/04 05:08:49;;;;;;;3.65;1.27;;;17.10;94.30;;;;;;5048204;28;20343;-33
2022/07/04 05:11:16;;;;;;;3.78;1.33;;;17.10;94.30;;;;;;5045921;28;20615;-33
2022/07/04 05:13:46;;;;;;;3.78;1.23;;;17.20;94.20;;;;;;5047970;28;20200;-33
2022/07/04 05:16:14;;;;;;;4.00;1.60;;;17.20;94.30;;;;;;5043884;28;20749;-33
2022/07/04 05:18:43;;;;;;;9.03;2.00;;;17.20;94.30;;;;;;5047174;28;20644;-33
2022/07/04 05:21:11;;;;;;;4.95;1.38;;;17.30;94.40;;;;;;5041964;28;20587;-33
2022/07/04 05:23:40;;;;;;;3.38;1.40;;;17.30;94.40;;;;;;5047801;28;20200;-33
2022/07/04 05:26:07;;;;;;;4.43;1.50;;;17.30;94.30;;;;;;5043382;28;20291;-33
2022/07/04 05:28:39;;;;;;;3.10;1.50;;;17.40;94.50;;;;;;5047002;28;20197;-33
2022/07/04 05:31:06;;;;;;;4.50;1.48;;;17.40;94.40;;;;;;5043863;28;20216;-33
2022/07/04 05:33:34;;;;;;;1.67;1.27;;;17.40;94.50;;;;;;5043299;28;20287;-33
2022/07/04 05:36:01;;;;;;;3.13;1.23;;;17.50;94.60;;;;;;5036831;28;20740;-33
2022/07/04 05:38:28;;;;;;;2.85;1.23;;;17.50;94.60;;;;;;5046194;28;20331;-33
2022/07/04 05:40:55;;;;;;;3.50;1.20;;;17.60;94.60;;;;;;5045480;28;20311;-33
2022/07/04 05:43:25;;;;;;;2.25;1.15;;;17.60;94.60;;;;;;5056011;28;20662;-33
2022/07/04 05:45:56;;;;;;;6.00;1.52;;;17.60;94.60;;;;;;5042018;28;20204;-33
2022/07/04 05:48:28;;;;;;;4.10;0.90;;;17.70;94.70;;;;;;5043522;28;20572;-33
2022/07/04 05:50:56;;;;;;;4.00;1.25;;;17.70;94.60;;;;;;5039159;28;20329;-32
2022/07/04 05:53:25;;;;;;;2.90;1.20;;;17.80;94.80;;;;;;5045859;28;20655;-33
2022/07/04 05:55:52;;;;;;;1.30;1.20;;;17.80;94.70;;;;;;5040844;28;20212;-32
2022/07/04 05:58:22;;;;;;;1.65;1.33;;;17.80;94.80;;;;;;5045442;28;20613;-32
2022/07/04 06:00:52;;;;;;;1.48;1.35;;;17.90;94.80;;;;;;5034890;28;20217;-32
2022/07/04 06:03:19;;;;;;;4.53;1.10;;;17.90;94.80;;;;;;5046486;28;20212;-32
2022/07/04 06:05:50;;;;;;;2.58;1.10;;;17.90;94.80;;;;;;5047830;28;20192;-33
2022/07/04 06:08:19;;;;;;;2.53;1.15;;;18.00;94.80;;;;;;5045111;28;20315;-33
2022/07/04 06:10:47;;;;;;;5.28;1.10;;;18.00;94.80;;;;;;5045409;28;20833;-33
2022/07/04 06:13:16;;;;;;;3.35;1.38;;;18.00;94.80;;;;;;5046277;28;20236;-33
2022/07/04 06:15:46;;;;;;;2.70;1.20;;;18.10;94.90;;;;;;5046314;28;20200;-33
2022/07/04 06:18:14;;;;;;;3.75;1.33;;;18.10;95.00;;;;;;5045292;28;20605;-34
2022/07/04 06:20:44;;;;;;;4.90;1.40;;;18.20;95.00;;;;;;5045498;28;20243;-34
2022/07/04 06:23:14;;;;;;;8.57;1.70;;;18.20;95.00;;;;;;5046912;28;20212;-33
2022/07/04 06:25:44;;;;;;;4.35;1.38;;;18.30;95.00;;;;;;5046289;28;20630;-32
2022/07/04 06:28:13;;;;;;;3.53;1.00;;;18.30;95.00;;;;;;5045188;28;20258;-33
2022/07/04 06:31:03;;;;;;;6.10;1.35;;;18.40;95.00;;;;;;5042927;28;20350;-38
2022/07/04 06:35:44;;;;;;;2.90;1.10;;;18.40;95.10;;;;;;5042227;28;20228;-33
2022/07/04 06:36:23;;;;;;;4.43;1.42;;;18.40;95.00;;;;;;5036967;28;20675;-33
2022/07/04 06:38:51;;;;;;;2.78;0.95;;;18.50;95.10;;;;;;5046195;28;20294;-32
2022/07/04 06:41:19;;;;;;;2.85;1.20;;;18.60;95.20;;;;;;5037577;28;20411;-33
2022/07/04 06:43:48;;;;;;;2.38;0.85;;;18.60;95.20;;;;;;5037625;28;20590;-33
2022/07/04 06:46:22;;;;;;;3.53;1.08;;;18.60;95.20;;;;;;5044907;28;20200;-34
2022/07/04 06:48:50;;;;;;;4.65;1.08;;;18.70;95.30;;;;;;5041479;28;20216;-33
2022/07/04 06:51:19;;;;;;;3.92;1.13;;;18.80;95.30;;;;;;5043405;28;20295;-33
2022/07/04 06:53:50;;;;;;;10.73;1.17;;;18.80;95.30;;;;;;5028723;28;20296;-33
2022/07/04 06:56:18;;;;;;;6.63;1.60;;;18.90;95.30;;;;;;5046835;28;20200;-34
2022/07/04 06:58:45;;;;;;;5.43;1.30;;;18.90;95.40;;;;;;5045487;28;20220;-33
2022/07/04 07:01:15;;;;;;;2.95;0.88;;;19.00;95.40;;;;;;5046365;28;20713;-33
2022/07/04 07:03:42;;;;;;;5.28;1.02;;;19.00;95.40;;;;;;5046110;28;20676;-33
2022/07/04 07:06:13;;;;;;;6.13;1.23;;;19.00;95.40;;;;;;5046070;28;20218;-34
2022/07/04 07:08:42;;;;;;;25.75;5.55;;;19.10;95.50;;;;;;5046061;28;20218;-34
2022/07/04 07:11:12;;;;;;;37.42;5.93;;;19.20;95.60;;;;;;5044546;28;20238;-33
2022/07/04 07:13:47;;;;;;;21.58;3.17;;;19.20;95.60;;;;;;5046929;28;20204;-33
2022/07/04 07:16:15;;;;;;;5.88;1.58;;;19.30;95.70;;;;;;5046925;28;20264;-33
2022/07/04 07:18:43;;;;;;;2.95;0.95;;;19.40;95.70;;;;;;5044066;28;20578;-32
2022/07/04 07:21:10;;;;;;;3.03;1.20;;;19.40;95.70;;;;;;5045487;28;20239;-33
2022/07/04 07:23:39;;;;;;;4.68;1.20;;;19.50;95.80;;;;;;5058610;28;20220;-33
2022/07/04 07:26:10;;;;;;;3.80;1.00;;;19.60;95.80;;;;;;5044475;28;20197;-34
2022/07/04 07:28:37;;;;;;;5.80;1.15;;;19.70;95.80;;;;;;5045148;28;20339;-33
2022/07/04 07:31:05;;;;;;;5.80;1.33;;;19.70;95.70;;;;;;5046139;28;20244;-34
2022/07/04 07:33:36;;;;;;;8.25;2.00;;;19.80;95.80;;;;;;5026858;28;20208;-33
2022/07/04 07:36:06;;;;;;;4.78;1.40;;;19.90;95.80;;;;;;5026299;28;20334;-34
2022/07/04 07:38:33;;;;;;;3.60;0.80;;;19.90;95.80;;;;;;5044054;28;20232;-34
2022/07/04 07:41:01;;;;;;;3.42;1.02;;;20.00;95.80;;;;;;5041744;28;20247;-34
2022/07/04 07:43:30;;;;;;;7.15;1.33;;;20.00;95.80;;;;;;5044942;28;20278;-34
2022/07/04 07:45:58;;;;;;;5.53;1.67;;;20.00;95.80;;;;;;5048727;28;20395;-35
2022/07/04 07:48:27;;;;;;;7.35;1.70;;;20.30;96.10;;;;;;5039968;28;20523;-34
2022/07/04 07:50:54;;;;;;;30.27;6.25;;;20.40;96.00;;;;;;5046465;28;20407;-34
2022/07/04 07:53:24;;;;;;;13.10;2.50;;;20.60;96.10;;;;;;5046654;28;20997;-34
2022/07/04 07:55:54;;;;;;;5.03;1.30;;;20.90;96.10;;;;;;5039582;28;20990;-34
2022/07/04 07:58:21;;;;;;;4.15;1.20;;;21.10;96.00;;;;;;5044887;28;20892;-35
2022/07/04 08:00:48;;;;;;;4.35;1.33;;;21.10;96.00;;;;;;5047072;28;20797;-34
2022/07/04 08:06:12;;;;;;;11.13;2.20;;;20.90;96.10;;;;;;5047169;28;20224;-34
2022/07/04 08:08:43;;;;;;;6.70;1.55;;;20.90;96.10;;;;;;5045401;28;20638;-33
2022/07/04 08:11:11;;;;;;;6.97;1.83;;;20.90;96.20;;;;;;5039926;28;20211;-34
2022/07/04 08:13:42;;;;;;;7.68;1.77;;;20.90;96.20;;;;;;5047290;28;20200;-33
2022/07/04 08:16:10;;;;;;;4.40;1.30;;;20.90;96.20;;;;;;5041137;28;20279;-34
2022/07/04 08:18:38;;;;;;;3.55;1.00;;;21.00;96.20;;;;;;5048555;28;20319;-34
2022/07/04 08:21:08;;;;;;;2.38;0.68;;;21.00;96.10;;;;;;5045401;28;20259;-33
2022/07/04 08:23:41;;;;;;;2.53;0.80;;;21.10;96.20;;;;;;5057147;28;20205;-35
2022/07/04 08:26:31;;;;;;;5.75;1.20;;;21.10;96.20;;;;;;5057006;28;20274;-34
2022/07/04 08:29:01;;;;;;;2.72;0.90;;;21.10;96.20;;;;;;5046373;28;20670;-37
2022/07/04 08:31:28;;;;;;;7.50;1.40;;;21.20;96.20;;;;;;5045006;28;20204;-37
2022/07/04 08:34:18;;;;;;;3.20;1.27;;;21.20;96.20;;;;;;5052267;28;20271;-37
2022/07/04 08:36:45;;;;;;;6.30;0.93;;;21.20;96.10;;;;;;5048216;28;20708;-37
2022/07/04 08:39:16;;;;;;;4.10;0.80;;;21.20;96.20;;;;;;5048650;28;20204;-37
2022/07/04 08:41:49;;;;;;;1.77;0.60;;;21.30;96.10;;;;;;5046233;28;20219;-37
2022/07/04 08:44:18;;;;;;;3.20;0.70;;;21.30;96.10;;;;;;5044461;28;20247;-37
2022/07/04 08:46:51;;;;;;;5.07;0.85;;;21.40;96.10;;;;;;5047432;28;20224;-37
2022/07/04 08:49:25;;;;;;;1.55;0.60;;;21.40;96.00;;;;;;5045052;28;20253;-37
2022/07/04 08:52:00;;;;;;;2.85;0.70;;;21.40;96.10;;;;;;5037771;28;20230;-37
2022/07/04 09:00:07;;;;;;;3.17;0.77;;;21.50;96.10;;;;;;5048247;28;20199;-37
2022/07/04 09:02:37;;;;;;;4.00;1.13;;;21.50;96.10;;;;;;5047620;28;20224;-42
2022/07/04 09:05:11;;;;;;;3.28;0.88;;;21.60;96.00;;;;;;5048472;28;20675;-37
2022/07/04 09:07:39;;;;;;;2.72;0.82;;;21.60;96.10;;;;;;5048127;28;20212;-37
2022/07/04 09:10:07;;;;;;;5.35;1.38;;;21.60;96.10;;;;;;5045646;28;20214;-36
2022/07/04 09:12:37;;;;;;;10.23;1.65;;;21.60;96.10;;;;;;5042790;28;20312;-37
2022/07/04 09:15:25;;;;;;;5.05;0.80;;;21.70;96.10;;;;;;5044740;28;20216;-37
2022/07/04 09:17:52;;;;;;;7.68;1.30;;;21.70;96.10;;;;;;5046001;28;20307;-36
2022/07/04 09:20:22;;;;;;;15.38;2.60;;;21.70;96.10;;;;;;5047131;28;20756;-36
2022/07/04 09:22:51;;;;;;;5.20;1.30;;;21.80;96.10;;;;;;5041628;28;20774;-36
2022/07/04 09:25:23;;;;;;;4.25;1.50;;;21.80;96.10;;;;;;5045991;28;20303;-35
2022/07/04 09:27:56;;;;;;;5.05;1.17;;;21.90;96.00;;;;;;5044046;28;20219;-34
2022/07/04 09:30:27;;;;;;;3.08;1.02;;;21.90;96.10;;;;;;5046572;28;20234;-33
2022/07/04 09:33:00;;;;;;;3.67;1.00;;;22.00;96.20;;;;;;5044239;28;20579;-34
2022/07/04 09:35:29;;;;;;;2.60;0.60;;;22.00;96.20;;;;;;5040884;28;20208;-34
2022/07/04 09:38:03;;;;;;;10.43;1.50;;;22.10;96.20;;;;;;5047649;28;20236;-33
2022/07/04 09:43:25;;;;;;;5.28;1.02;;;22.20;96.20;;;;;;5004090;28;20949;-34
2022/07/04 09:46:00;;;;;;;4.10;1.08;;;22.30;96.20;;;;;;5044881;28;20297;-34
2022/07/04 09:48:51;;;;;;;2.30;0.70;;;22.30;95.70;;;;;;5046272;28;20195;-36
2022/07/04 09:51:37;;;;;;;2.03;0.68;;;22.40;95.90;;;;;;5041170;28;20311;-36
2022/07/04 09:54:21;;;;;;;1.38;0.70;;;22.40;96.00;;;;;;5039366;28;20242;-36
2022/07/04 09:56:53;;;;;;;2.13;1.05;;;22.50;96.10;;;;;;5041691;28;20232;-36
2022/07/04 09:59:21;;;;;;;2.78;0.93;;;22.50;96.10;;;;;;5038623;28;20628;-36
2022/07/04 10:01:49;;;;;;;1.35;0.70;;;22.60;96.10;;;;;;5056263;28;20317;-36
2022/07/04 10:04:16;;;;;;;2.05;0.70;;;22.60;96.10;;;;;;5041253;28;20292;-36
2022/07/04 10:06:45;;;;;;;1.70;0.93;;;22.70;96.10;;;;;;5042303;28;20211;-36
2022/07/04 10:09:17;;;;;;;31.38;4.97;;;22.80;95.80;;;;;;5040228;28;20228;-37
2022/07/04 10:11:46;;;;;;;21.75;3.53;;;22.80;96.10;;;;;;5045224;28;20212;-36
2022/07/04 10:14:15;;;;;;;8.13;1.85;;;22.90;96.20;;;;;;5045330;28;20352;-36
2022/07/04 10:16:46;;;;;;;6.30;1.30;;;23.00;96.30;;;;;;5061585;28;20720;-36
2022/07/04 10:19:15;;;;;;;3.38;0.80;;;23.00;96.30;;;;;;5046616;28;20235;-36
2022/07/04 10:21:46;;;;;;;3.28;0.80;;;23.10;96.00;;;;;;5040097;28;20220;-37
2022/07/04 10:24:16;;;;;;;3.42;0.95;;;23.10;95.80;;;;;;5047713;28;20581;-36
2022/07/04 10:26:43;;;;;;;1.20;0.60;;;23.10;95.70;;;;;;5044971;28;20203;-36
2022/07/04 10:29:12;;;;;;;1.60;0.60;;;23.10;95.70;;;;;;5044661;28;20212;-36
2022/07/04 10:31:42;;;;;;;3.63;1.00;;;23.10;95.80;;;;;;5046918;28;20208;-36
2022/07/04 10:34:11;;;;;;;1.27;0.70;;;23.10;95.80;;;;;;5044461;28;20209;-36
2022/07/04 10:36:50;;;;;;;3.00;0.90;;;23.10;95.80;;;;;;5043283;28;20741;-36
2022/07/04 10:39:24;;;;;;;1.20;0.60;;;23.20;95.80;;;;;;5047036;28;20219;-36
2022/07/04 10:41:59;;;;;;;0.75;0.57;;;23.20;95.70;;;;;;5044141;28;20220;-36
2022/07/04 10:44:27;;;;;;;0.80;0.50;;;23.20;95.50;;;;;;5047431;28;20307;-36
2022/07/04 10:46:57;;;;;;;1.17;0.60;;;23.20;95.50;;;;;;5044229;28;20258;-36
2022/07/04 10:49:28;;;;;;;1.70;0.75;;;23.30;95.40;;;;;;5051190;28;20200;-36
2022/07/04 10:52:09;;;;;;;1.38;0.60;;;23.30;95.50;;;;;;5043920;28;20231;-36
2022/07/04 10:54:44;;;;;;;1.88;0.70;;;23.30;95.50;;;;;;5057523;28;20364;-38
2022/07/04 10:57:24;;;;;;;1.92;0.60;;;23.40;95.70;;;;;;5044074;28;20203;-35
2022/07/04 10:59:56;;;;;;;1.75;0.63;;;23.40;95.80;;;;;;5045149;28;20211;-36
2022/07/04 11:02:32;;;;;;;1.45;0.60;;;23.50;95.60;;;;;;5046209;28;20216;-35
2022/07/04 11:05:09;;;;;;;1.73;0.77;;;23.60;95.60;;;;;;5038737;28;20683;-36
2022/07/04 11:07:36;;;;;;;10.93;2.25;;;23.60;95.60;;;;;;5046913;28;20639;-36
2022/07/04 11:12:55;;;;;;;2.80;1.75;;;23.70;95.50;;;;;;5042923;28;20549;-36
2022/07/04 11:15:33;;;;;;;4.50;2.00;;;23.80;95.20;;;;;;5048749;28;20250;-36
2022/07/04 11:18:12;;;;;;;5.28;2.53;;;23.80;95.10;;;;;;5050401;28;20258;-36
2022/07/04 11:20:46;;;;;;;6.32;2.40;;;23.80;94.90;;;;;;5046794;28;20208;-37
2022/07/04 11:23:16;;;;;;;3.00;2.25;;;23.80;95.00;;;;;;5049796;28;20230;-36
2022/07/04 11:25:48;;;;;;;4.50;2.50;;;23.90;94.90;;;;;;5050660;28;20613;-36
2022/07/04 11:28:28;;;;;;;4.70;2.60;;;23.90;94.70;;;;;;5065454;28;20209;-36
2022/07/04 11:31:17;;;;;;;3.53;1.90;;;24.00;94.90;;;;;;5054356;28;20295;-36
2022/07/04 11:33:48;;;;;;;4.80;2.08;;;24.10;94.40;;;;;;5042477;28;20215;-36
2022/07/04 11:36:20;;;;;;;5.38;2.42;;;24.10;94.80;;;;;;5043440;28;20212;-36
2022/07/04 11:39:05;;;;;;;3.65;2.45;;;24.10;94.90;;;;;;5045587;28;20251;-36
2022/07/04 11:47:35;;;;;;;3.85;1.33;;;24.10;94.70;;;;;;5047520;28;20220;-36
2022/07/04 11:50:14;;;;;;;3.53;1.30;;;24.10;95.00;;;;;;5048981;28;20266;-36
2022/07/04 11:52:44;;;;;;;4.38;1.55;;;24.20;95.00;;;;;;5049739;28;20211;-36
2022/07/04 11:55:32;;;;;;;2.33;1.20;;;24.20;95.10;;;;;;5034302;28;20200;-36
2022/07/04 11:58:19;;;;;;;1.85;0.82;;;24.20;94.60;;;;;;5049777;28;20624;-36
2022/07/04 12:00:48;;;;;;;4.28;1.17;;;24.20;95.00;;;;;;5050012;28;20253;-36
2022/07/04 12:03:16;;;;;;;4.10;1.05;;;24.30;94.40;;;;;;5047372;28;20221;-36
2022/07/04 12:05:43;;;;;;;4.10;1.30;;;24.30;94.50;;;;;;5048520;28;20211;-36
2022/07/04 12:08:11;;;;;;;2.47;0.80;;;24.40;94.50;;;;;;5049054;28;20204;-36
2022/07/04 12:10:53;;;;;;;3.08;0.70;;;24.50;94.50;;;;;;5047231;28;20384;-36
2022/07/04 12:13:20;;;;;;;3.63;0.93;;;24.50;94.50;;;;;;5047379;28;20239;-38
2022/07/04 12:15:52;;;;;;;2.35;1.05;;;24.40;94.70;;;;;;5049430;28;20207;-38
2022/07/04 12:18:23;;;;;;;6.68;1.00;;;24.50;94.40;;;;;;5026586;28;20686;-38
2022/07/04 12:20:52;;;;;;;2.42;0.80;;;24.50;94.80;;;;;;5048196;28;20200;-38
2022/07/04 12:23:21;;;;;;;1.58;0.70;;;24.60;94.90;;;;;;5047600;28;20277;-38
2022/07/04 12:25:52;;;;;;;3.45;1.00;;;24.60;94.70;;;;;;5035177;28;20201;-38
2022/07/04 12:28:24;;;;;;;3.30;1.08;;;24.70;94.90;;;;;;5043121;28;20215;-38
2022/07/04 12:30:58;;;;;;;3.08;0.80;;;24.80;95.00;;;;;;5042253;28;20641;-38
2022/07/04 12:33:28;;;;;;;2.67;1.02;;;24.90;95.10;;;;;;5043308;28;20219;-38
2022/07/04 12:36:00;;;;;;;6.88;1.65;;;24.90;95.10;;;;;;5038935;28;20840;-38
2022/07/04 12:38:34;;;;;;;6.78;1.38;;;25.00;95.50;;;;;;5040840;28;20305;-38
2022/07/04 12:41:07;;;;;;;4.70;1.38;;;25.10;94.90;;;;;;5047305;28;20258;-38
2022/07/04 12:43:41;;;;;;;4.28;0.90;;;25.20;94.80;;;;;;5043274;28;20262;-38
2022/07/04 12:46:13;;;;;;;5.07;1.10;;;25.20;94.70;;;;;;5046393;28;20748;-38
2022/07/04 12:48:44;;;;;;;3.65;1.00;;;25.30;94.80;;;;;;5039538;28;20648;-37
2022/07/04 12:51:22;;;;;;;1.92;1.02;;;25.30;94.80;;;;;;5040007;28;20637;-34
2022/07/04 12:53:53;;;;;;;2.28;0.80;;;25.30;94.90;;;;;;5034419;28;20222;-34
2022/07/04 12:56:47;;;;;;;3.20;1.08;;;25.30;94.80;;;;;;5043075;28;20702;-34
2022/07/04 12:59:18;;;;;;;3.70;0.98;;;25.40;94.60;;;;;;5045757;28;20307;-35
2022/07/04 13:01:46;;;;;;;1.83;1.10;;;25.50;94.70;;;;;;5039287;28;20542;-34
2022/07/04 13:04:14;;;;;;;2.05;1.05;;;25.50;94.80;;;;;;5040942;28;20789;-34
2022/07/04 13:06:43;;;;;;;2.25;1.08;;;25.60;95.10;;;;;;5048200;28;20236;-35
2022/07/04 13:09:13;;;;;;;4.68;1.20;;;25.60;94.90;;;;;;5048170;28;20694;-34
2022/07/04 13:14:27;;;;;;;1.88;0.80;;;25.70;94.80;;;;;;5041929;28;20772;-34
2022/07/04 13:16:59;;;;;;;6.45;1.20;;;25.70;93.90;;;;;;5046869;28;20747;-36
2022/07/04 13:19:26;;;;;;;6.35;1.45;;;25.70;94.50;;;;;;5048639;28;20219;-35
2022/07/04 13:21:56;;;;;;;2.88;1.17;;;25.80;94.50;;;;;;5047682;28;20246;-34
2022/07/04 13:24:23;;;;;;;3.90;0.93;;;25.80;94.20;;;;;;5045928;28;20920;-34
2022/07/04 13:26:55;;;;;;;9.75;1.00;;;26.00;94.50;;;;;;5045995;28;20199;-35
2022/07/04 13:29:25;;;;;;;4.05;0.93;;;26.00;93.90;;;;;;5047256;28;20546;-34
2022/07/04 13:31:59;;;;;;;2.15;1.00;;;26.10;94.10;;;;;;5048288;28;20316;-34